createdAt,value
2018-09-22T05:24:29.168Z,7.40
2018-09-22T05:26:58.071Z,7.83
2018-09-22T05:29:26.828Z,7.27
2018-09-22T05:31:55.573Z,7.20
2018-09-22T05:34:24.353Z,7.03
2018-09-22T05:36:53.112Z,7.50
2018-09-22T05:39:21.939Z,7.40
2018-09-22T05:41:50.688Z,6.77
2018-09-22T05:44:19.300Z,8.13
2018-09-22T05:46:47.980Z,7.30
2018-09-22T05:49:16.653Z,7.00
2018-09-22T05:51:45.481Z,7.57
2018-09-22T05:54:14.977Z,6.50
2018-09-22T05:56:43.661Z,7.13
2018-09-22T05:59:12.391Z,8.17
2018-09-22T06:01:41.100Z,7.33
2018-09-22T06:04:09.864Z,6.47
2018-09-22T06:06:38.553Z,6.70
2018-09-22T06:09:09.416Z,7.17
2018-09-22T06:11:38.244Z,6.63
2018-09-22T06:14:07.137Z,6.73
2018-09-22T06:16:35.862Z,7.20
2018-09-22T06:19:04.571Z,7.63
2018-09-22T06:21:33.364Z,6.83
2018-09-22T06:24:02.136Z,6.30
2018-09-22T06:26:30.868Z,6.67
2018-09-22T06:28:59.521Z,7.27
2018-09-22T06:31:28.322Z,8.00
2018-09-22T06:33:57.011Z,7.70
2018-09-22T06:36:26.166Z,7.80
2018-09-22T06:38:55.037Z,7.80
2018-09-22T06:41:23.867Z,7.60
2018-09-22T06:43:52.659Z,8.13
2018-09-22T06:46:21.487Z,9.47
2018-09-22T06:48:50.187Z,7.87
2018-09-22T06:51:19.541Z,6.77
2018-09-22T06:53:48.220Z,7.10
2018-09-22T06:56:16.955Z,7.43
2018-09-22T06:58:45.663Z,9.33
2018-09-22T07:01:14.512Z,7.67
2018-09-22T07:03:43.167Z,6.50
2018-09-22T07:06:11.982Z,6.50
2018-09-22T07:08:40.713Z,6.80
2018-09-22T07:11:09.407Z,23.00
2018-09-22T07:13:38.111Z,7.43
2018-09-22T07:16:06.935Z,8.07
2018-09-22T07:18:35.672Z,7.77
2018-09-22T07:21:06.381Z,7.47
2018-09-22T07:23:35.046Z,7.47
2018-09-22T07:26:04.243Z,7.17
2018-09-22T07:28:33.075Z,6.20
2018-09-22T07:31:01.792Z,7.40
2018-09-22T07:33:30.452Z,7.20
2018-09-22T07:35:59.115Z,6.53
2018-09-22T07:38:27.767Z,6.73
2018-09-22T07:40:56.462Z,6.90
2018-09-22T07:45:50.333Z,6.47
2018-09-22T07:48:19.008Z,5.73
2018-09-22T07:50:47.688Z,6.33
2018-09-22T07:53:16.360Z,6.23
2018-09-22T07:55:45.112Z,5.73
2018-09-22T07:58:13.839Z,5.63
2018-09-22T08:00:42.643Z,6.27
2018-09-22T08:03:11.335Z,6.43
2018-09-22T08:05:40.039Z,6.27
2018-09-22T08:08:08.890Z,7.10
2018-09-22T08:10:37.622Z,7.70
2018-09-22T08:13:06.739Z,6.27
2018-09-22T08:15:35.387Z,5.87
2018-09-22T08:18:04.051Z,5.20
2018-09-22T08:20:32.793Z,5.07
2018-09-22T08:23:01.602Z,4.20
2018-09-22T08:25:30.281Z,4.07
2018-09-22T08:27:59.019Z,5.33
2018-09-22T08:30:29.126Z,6.30
2018-09-22T08:32:58.017Z,5.67
2018-09-22T08:35:26.785Z,6.07
2018-09-22T08:37:55.443Z,5.33
2018-09-22T08:40:24.111Z,5.30
2018-09-22T08:42:52.833Z,5.93
2018-09-22T08:45:21.862Z,6.47
2018-09-22T08:47:50.553Z,5.70
2018-09-22T08:50:19.312Z,5.20
2018-09-22T08:52:48.011Z,5.53
2018-09-22T08:55:16.796Z,5.03
2018-09-22T08:57:45.451Z,5.23
2018-09-22T09:00:14.276Z,5.30
2018-09-22T09:02:42.988Z,4.83
2018-09-22T09:05:11.855Z,5.00
2018-09-22T09:07:40.560Z,5.23
2018-09-22T09:10:09.400Z,5.20
2018-09-22T09:12:38.111Z,4.93
2018-09-22T09:15:06.967Z,5.20
2018-09-22T09:17:35.581Z,5.50
2018-09-22T09:20:04.372Z,5.63
2018-09-22T09:22:33.078Z,5.83
2018-09-22T09:25:01.901Z,6.20
2018-09-22T09:27:30.677Z,5.80
2018-09-22T09:29:59.403Z,5.43
2018-09-22T09:32:28.128Z,5.73
2018-09-22T09:34:56.990Z,6.10
2018-09-22T09:37:25.646Z,5.97
2018-09-22T09:39:54.432Z,5.67
2018-09-22T09:42:23.191Z,5.43
2018-09-22T09:44:51.997Z,5.53
2018-09-22T09:47:21.553Z,5.80
2018-09-22T09:49:50.777Z,5.80
2018-09-22T09:52:19.509Z,5.80
2018-09-22T09:54:48.330Z,5.63
2018-09-22T09:57:17.153Z,5.73
2018-09-22T09:59:46.923Z,5.97
2018-09-22T10:02:15.647Z,5.60
2018-09-22T10:04:44.409Z,5.60
2018-09-22T10:07:13.115Z,5.20
2018-09-22T10:09:41.817Z,5.12
2018-09-22T10:12:10.484Z,5.00
2018-09-22T10:14:39.296Z,4.90
2018-09-22T10:17:08.621Z,4.97
2018-09-22T10:19:37.287Z,5.35
2018-09-22T10:22:06.004Z,4.40
2018-09-22T10:24:34.757Z,4.95
2018-09-22T10:27:03.455Z,5.03
2018-09-22T10:29:32.242Z,4.58
2018-09-22T10:32:01.089Z,4.58
2018-09-22T10:34:29.851Z,4.62
2018-09-22T10:36:58.589Z,4.28
2018-09-22T10:39:27.322Z,4.92
2018-09-22T10:41:56.029Z,4.10
2018-09-22T10:44:24.785Z,4.15
2018-09-22T10:46:53.589Z,5.35
2018-09-22T10:49:22.784Z,4.80
2018-09-22T10:51:52.126Z,4.50
2018-09-22T10:54:20.837Z,4.65
2018-09-22T10:56:49.488Z,5.00
2018-09-22T10:59:18.140Z,4.50
2018-09-22T11:01:46.818Z,4.62
2018-09-22T11:04:15.455Z,4.50
2018-09-22T11:06:44.139Z,4.42
2018-09-22T11:09:12.840Z,4.17
2018-09-22T11:11:41.585Z,4.92
2018-09-22T11:14:10.267Z,4.53
2018-09-22T11:16:39.193Z,4.95
2018-09-22T11:19:07.880Z,4.30
2018-09-22T11:21:36.582Z,4.83
2018-09-22T11:24:05.336Z,4.30
2018-09-22T11:26:34.107Z,4.00
2018-09-22T11:29:02.985Z,4.25
2018-09-22T11:31:31.825Z,3.65
2018-09-22T11:34:00.616Z,4.30
2018-09-22T11:36:29.364Z,4.20
2018-09-22T11:38:58.228Z,4.00
2018-09-22T11:41:27.039Z,3.45
2018-09-22T11:43:55.806Z,3.20
2018-09-22T11:46:24.654Z,3.20
2018-09-22T11:48:53.389Z,3.62
2018-09-22T11:51:22.117Z,3.12
2018-09-22T11:53:50.795Z,3.27
2018-09-22T11:56:19.482Z,3.50
2018-09-22T11:58:48.319Z,3.52
2018-09-22T12:01:17.030Z,3.50
2018-09-22T12:03:45.740Z,3.90
2018-09-22T12:06:14.538Z,3.37
2018-09-22T12:08:43.336Z,3.40
2018-09-22T12:11:12.076Z,3.40
2018-09-22T12:13:40.724Z,3.17
2018-09-22T12:16:09.491Z,3.20
2018-09-22T12:18:38.252Z,2.65
2018-09-22T12:21:07.305Z,2.85
2018-09-22T12:23:35.996Z,2.83
2018-09-22T12:26:04.663Z,3.30
2018-09-22T12:28:33.359Z,2.98
2018-09-22T12:31:02.232Z,3.62
2018-09-22T12:33:30.955Z,3.30
2018-09-22T12:36:00.003Z,3.65
2018-09-22T12:38:28.750Z,3.17
2018-09-22T12:40:57.544Z,3.22
2018-09-22T12:43:26.233Z,2.92
2018-09-22T12:45:54.952Z,2.95
2018-09-22T12:48:23.624Z,3.12
2018-09-22T12:50:52.298Z,3.27
2018-09-22T12:53:20.962Z,2.95
2018-09-22T12:55:49.631Z,2.80
2018-09-22T12:58:18.420Z,3.10
2018-09-22T13:00:47.144Z,2.90
2018-09-22T13:03:15.903Z,3.20
2018-09-22T13:05:44.584Z,3.10
2018-09-22T13:08:13.350Z,2.80
2018-09-22T13:10:42.045Z,3.12
2018-09-22T13:13:10.720Z,3.27
2018-09-22T13:15:39.473Z,2.90
2018-09-22T13:18:08.306Z,3.30
2018-09-22T13:20:37.021Z,3.37
2018-09-22T13:23:06.178Z,3.35
2018-09-22T13:25:34.902Z,3.10
2018-09-22T13:28:03.599Z,3.30
2018-09-22T13:30:32.267Z,3.20
2018-09-22T13:33:01.016Z,2.92
2018-09-22T13:35:29.679Z,2.83
2018-09-22T13:37:58.346Z,3.08
2018-09-22T13:40:27.021Z,2.90
2018-09-22T13:42:55.777Z,3.00
2018-09-22T13:45:24.484Z,3.08
2018-09-22T13:47:53.316Z,3.10
2018-09-22T13:50:22.106Z,3.10
2018-09-22T13:52:50.830Z,3.37
2018-09-22T13:55:20.402Z,3.60
2018-09-22T13:57:49.075Z,3.20
2018-09-22T14:00:19.103Z,3.47
2018-09-22T14:02:47.774Z,3.65
2018-09-22T14:05:16.527Z,3.10
2018-09-22T14:07:45.197Z,3.30
2018-09-22T14:10:14.139Z,3.30
2018-09-22T14:12:42.828Z,3.20
2018-09-22T14:15:11.549Z,2.80
2018-09-22T14:17:40.267Z,3.00
2018-09-22T14:20:09.009Z,2.72
2018-09-22T14:22:37.802Z,3.83
2018-09-22T14:25:06.605Z,3.10
2018-09-22T14:27:35.857Z,3.40
2018-09-22T14:30:06.250Z,3.27
2018-09-22T14:32:35.118Z,3.33
2018-09-22T14:35:03.960Z,3.15
2018-09-22T14:37:32.623Z,3.60
2018-09-22T14:40:01.424Z,3.60
2018-09-22T14:42:30.216Z,3.70
2018-09-22T14:44:58.966Z,3.83
2018-09-22T14:47:27.782Z,3.60
2018-09-22T14:49:56.486Z,3.75
2018-09-22T14:52:25.208Z,3.83
2018-09-22T14:54:53.899Z,3.55
2018-09-22T14:57:22.602Z,3.60
2018-09-22T14:59:51.276Z,3.67
2018-09-22T15:02:20.030Z,4.08
2018-09-22T15:04:48.784Z,4.42
2018-09-22T15:07:17.606Z,3.65
2018-09-22T15:09:46.383Z,3.60
2018-09-22T15:12:15.069Z,3.90
2018-09-22T15:14:43.813Z,3.90
2018-09-22T15:17:12.592Z,3.85
2018-09-22T15:19:41.368Z,4.37
2018-09-22T15:22:10.139Z,3.85
2018-09-22T15:24:38.885Z,4.80
2018-09-22T15:27:07.663Z,4.25
2018-09-22T15:29:36.375Z,4.15
2018-09-22T15:32:05.097Z,3.98
2018-09-22T15:34:33.870Z,4.55
2018-09-22T15:37:02.681Z,3.60
2018-09-22T15:39:31.355Z,4.28
2018-09-22T15:42:00.174Z,3.80
2018-09-22T15:44:28.960Z,3.95
2018-09-22T15:46:57.659Z,4.00
2018-09-22T15:49:26.396Z,4.10
2018-09-22T15:51:55.070Z,7.90
2018-09-22T15:54:23.868Z,4.25
2018-09-22T15:56:52.554Z,4.30
2018-09-22T15:59:21.213Z,4.50
2018-09-22T16:01:49.915Z,4.37
2018-09-22T16:04:18.631Z,4.50
2018-09-22T16:06:47.365Z,4.33
2018-09-22T16:09:16.033Z,4.90
2018-09-22T16:11:44.803Z,4.70
2018-09-22T16:14:13.553Z,4.72
2018-09-22T16:16:42.234Z,4.85
2018-09-22T16:19:10.944Z,4.60
2018-09-22T16:21:39.732Z,4.70
2018-09-22T16:24:08.620Z,4.78
2018-09-22T16:26:37.293Z,4.95
2018-09-22T16:29:06.040Z,4.33
2018-09-22T16:31:34.815Z,5.78
2018-09-22T16:34:03.719Z,6.07
2018-09-22T16:36:32.445Z,5.40
2018-09-22T16:39:01.156Z,5.97
2018-09-22T16:41:29.923Z,6.00
2018-09-22T16:43:58.802Z,6.27
2018-09-22T16:46:27.518Z,6.93
2018-09-22T16:48:56.313Z,7.73
2018-09-22T16:51:25.049Z,7.27
2018-09-22T16:53:53.735Z,8.13
2018-09-22T16:56:23.043Z,7.53
2018-09-22T16:58:51.831Z,7.40
2018-09-22T17:01:20.519Z,8.23
2018-09-22T17:03:49.279Z,7.93
2018-09-22T17:06:18.194Z,8.80
2018-09-22T17:08:46.973Z,9.90
2018-09-22T17:11:15.654Z,9.57
2018-09-22T17:13:44.539Z,8.93
2018-09-22T17:16:13.257Z,10.20
2018-09-22T17:18:41.920Z,8.20
2018-09-22T17:21:10.671Z,8.60
2018-09-22T17:23:39.466Z,12.00
2018-09-22T17:26:08.206Z,10.70
2018-09-22T17:28:37.330Z,9.53
2018-09-22T17:31:06.150Z,7.47
2018-09-22T17:33:34.904Z,8.30
2018-09-22T17:36:03.664Z,8.80
2018-09-22T17:38:32.359Z,8.07
2018-09-22T17:41:01.221Z,8.33
2018-09-22T17:43:29.895Z,8.67
2018-09-22T17:45:59.156Z,8.90
2018-09-22T17:48:27.928Z,8.30
2018-09-22T17:50:56.670Z,9.53
2018-09-22T17:53:25.478Z,9.67
2018-09-22T17:55:54.382Z,8.73
2018-09-22T17:58:23.305Z,9.77
2018-09-22T18:00:52.137Z,8.20
2018-09-22T18:03:20.926Z,10.10
2018-09-22T18:05:49.655Z,9.40
2018-09-22T18:08:18.605Z,8.47
2018-09-22T18:10:47.336Z,9.13
2018-09-22T18:13:16.156Z,8.70
2018-09-22T18:15:45.004Z,9.30
2018-09-22T18:18:13.683Z,9.63
2018-09-22T18:20:42.396Z,8.80
2018-09-22T18:23:11.102Z,9.33
2018-09-22T18:25:39.915Z,9.70
2018-09-22T18:28:08.578Z,9.33
2018-09-22T18:30:37.280Z,8.60
2018-09-22T18:33:06.036Z,8.27
2018-09-22T18:35:34.923Z,8.67
2018-09-22T18:38:03.616Z,9.47
2018-09-22T18:40:32.278Z,9.17
2018-09-22T18:43:01.112Z,9.27
2018-09-22T18:45:29.967Z,9.23
2018-09-22T18:47:58.718Z,9.20
2018-09-22T18:50:27.460Z,9.83
2018-09-22T18:52:56.207Z,9.73
2018-09-22T18:55:25.061Z,9.57
2018-09-22T18:57:53.753Z,9.70
2018-09-22T19:00:23.821Z,10.30
2018-09-22T19:02:52.637Z,10.13
2018-09-22T19:05:21.361Z,10.90
2018-09-22T19:07:50.051Z,11.03
2018-09-22T19:10:18.828Z,10.93
2018-09-22T19:12:47.609Z,11.07
2018-09-22T19:15:52.415Z,11.87
2018-09-22T19:18:26.356Z,9.93
2018-09-22T19:20:58.460Z,10.50
2018-09-22T19:23:33.470Z,10.93
2018-09-22T19:26:06.259Z,10.67
2018-09-22T19:28:40.772Z,10.57
2018-09-22T19:31:13.152Z,10.20
2018-09-22T19:33:47.973Z,9.30
2018-09-22T19:36:21.689Z,9.47
2018-09-22T19:38:55.594Z,8.30
2018-09-22T19:41:43.362Z,9.90
2018-09-22T19:44:24.610Z,9.00
2018-09-22T19:47:30.218Z,9.53
2018-09-22T19:50:04.668Z,10.23
2018-09-22T19:52:43.684Z,8.93
2018-09-22T19:55:12.447Z,8.53
2018-09-22T19:57:41.180Z,8.03
2018-09-22T20:00:13.394Z,8.70
2018-09-22T20:02:42.719Z,8.23
2018-09-22T20:05:11.387Z,8.27
2018-09-22T20:07:40.160Z,9.17
2018-09-22T20:10:09.529Z,8.53
2018-09-22T20:12:38.321Z,9.40
2018-09-22T20:15:07.070Z,9.60
2018-09-22T20:17:35.799Z,11.30
2018-09-22T20:20:04.688Z,12.27
2018-09-22T20:22:33.377Z,10.17
2018-09-22T20:25:02.072Z,11.13
2018-09-22T20:27:30.750Z,11.23
2018-09-22T20:30:00.539Z,10.40
2018-09-22T20:32:29.428Z,10.80
2018-09-22T20:34:58.122Z,10.10
2018-09-22T20:37:26.812Z,9.37
2018-09-22T20:39:55.517Z,9.00
2018-09-22T20:44:59.360Z,9.03
2018-09-22T20:47:28.030Z,8.17
2018-09-22T20:49:56.748Z,8.37
2018-09-22T20:52:25.461Z,8.10
2018-09-22T20:54:54.162Z,8.23
2018-09-22T20:57:22.895Z,8.93
2018-09-22T20:59:51.716Z,9.20
2018-09-22T21:02:20.393Z,8.77
2018-09-22T21:04:49.093Z,8.50
2018-09-22T21:07:17.782Z,8.80
2018-09-22T21:09:46.497Z,9.37
2018-09-22T21:12:15.159Z,9.53
2018-09-22T21:14:43.831Z,10.30
2018-09-22T21:17:12.518Z,9.87
2018-09-22T21:19:41.212Z,10.13
2018-09-22T21:22:09.983Z,9.57
2018-09-22T21:24:38.720Z,10.27
2018-09-22T21:27:07.390Z,9.87
2018-09-22T21:29:36.103Z,10.53
2018-09-22T21:32:04.811Z,11.53
2018-09-22T21:34:33.528Z,11.07
2018-09-22T21:37:02.266Z,10.80
2018-09-22T21:39:30.980Z,11.13
2018-09-22T21:41:59.785Z,10.60
2018-09-22T21:44:28.396Z,12.20
2018-09-22T21:46:57.069Z,12.80
2018-09-22T21:49:25.840Z,12.17
2018-09-22T21:51:54.569Z,12.53
2018-09-22T21:54:23.273Z,11.73
2018-09-22T21:56:52.008Z,12.03
2018-09-22T21:59:20.672Z,12.67
2018-09-22T22:01:49.358Z,13.10
2018-09-22T22:04:18.079Z,12.67
2018-09-22T22:06:46.829Z,13.03
2018-09-22T22:09:15.897Z,12.70
2018-09-22T22:11:45.540Z,11.83
2018-09-22T22:14:14.220Z,11.83
2018-09-22T22:16:42.906Z,13.30
2018-09-22T22:19:11.661Z,13.40
2018-09-22T22:21:40.343Z,12.77
2018-09-22T22:24:09.019Z,14.77
2018-09-22T22:26:37.681Z,15.37
2018-09-22T22:29:06.579Z,13.87
2018-09-22T22:31:35.297Z,13.30
2018-09-22T22:34:04.075Z,14.73
2018-09-22T22:36:32.760Z,14.10
2018-09-22T22:39:01.424Z,15.10
2018-09-22T22:41:30.236Z,15.03
2018-09-22T22:43:58.926Z,15.70
2018-09-22T22:46:27.610Z,15.47
2018-09-22T22:48:56.362Z,14.90
2018-09-22T22:51:25.046Z,16.17
2018-09-22T22:53:53.787Z,16.37
2018-09-22T22:56:22.568Z,15.37
2018-09-22T22:58:51.228Z,16.77
2018-09-22T23:01:20.013Z,16.40
2018-09-22T23:03:48.754Z,16.77
2018-09-22T23:06:17.443Z,18.70
2018-09-22T23:08:46.208Z,18.60
2018-09-22T23:11:14.952Z,18.27
2018-09-22T23:13:43.700Z,20.67
2018-09-22T23:16:12.398Z,20.30
2018-09-22T23:18:41.057Z,21.03
2018-09-22T23:21:09.842Z,19.47
2018-09-22T23:23:38.548Z,20.23
2018-09-22T23:26:07.293Z,20.37
2018-09-22T23:28:36.028Z,21.20
2018-09-22T23:31:04.677Z,21.50
2018-09-22T23:33:33.416Z,22.40
2018-09-22T23:36:02.270Z,22.83
2018-09-22T23:38:31.241Z,23.30
2018-09-22T23:41:00.038Z,23.97
2018-09-22T23:43:28.768Z,24.57
2018-09-22T23:45:57.423Z,24.07
2018-09-22T23:48:26.129Z,25.50
2018-09-22T23:50:54.965Z,24.90
2018-09-22T23:53:23.595Z,24.80
2018-09-22T23:55:52.300Z,25.20
2018-09-22T23:58:20.948Z,25.80
